Flatwoods, Kentucky
Current Conditions -  °F | °C
As of 2:55 PM on Sunday 23 Nov 2014 (Local Time) from KDWU Reporting Station
Overcast Overcast  
Wind Chill: 66°   Ceiling: 8000
Heat Index: 66°   Visibility: 10mi
Dew Point: 43°   Wind: 12mph
Humidity: 43%   Direction: 140°SE
Pressure: 29.75"   Gusts: NA
Location:  38.52°N, 82.72°W
Report Text: KDWU 231955Z AUTO 14010KT 10SM BKN080 BKN090 OVC120 19/06 A2975 RMK AO1
Loading
Personal Weather Stations






























Interactive Weather Map New forecast layout! Learn more

10-Day Weather Forecast

Advertisements
Track Severe Weather on mobile